EUFO2: Eufaula Lake

Data processed at Mon Jan 15 2018 23:09


All information presented herein is the property of the government of the United States of America and may be revised or deleted at any time without prior notice.
Dissemination of this information without the expressed written consent of the Public Affairs Office, Tulsa District U.S. Army Corps of Engineers is strictly prohibited.
These data are gathered electronically and, as presented, have not undergone any form of quality control. These data are not guaranteed to be valid or correct.
Go to home page.
Go to station list.

Upstream stations:

Downstream station:
Previous Day
Next Day
Current Day
    
SHEF ID:       EUFO2     Eufaula Lake
STATION TYPE:  RESERVOIR
Normal Pool:  Bottom =   565.00, Top =   585.00

               PRECIP ELEVATION   STORAGE   TW-ELEV    INFLOW   RELEASE  AIR-TEMP  WIND-DIRWIND-SPEED REL-HUMID SOLAR-RAD   VOLTAGE  BAT-LOAD
                   in        ft     ac-ft        ft       cfs       cfs         F       deg       mph         %      W/m2      volt      volt
              Ccp-Rev   Ccp-Rev   Ccp-Rev   Ccp-Rev  Regi-Rev  Regi-Rev   Ccp-Rev   Ccp-Rev   Ccp-Rev   Ccp-Rev   Ccp-Rev   Ccp-Rev   Ccp-Rev
(US/Central)
01/13 00:00      0.00    581.46   1880520    484.82      -901      -901     26.28    330.00      1.16     54.95      0.00     13.71     13.53
01/13 01:00      0.00    581.48   1882201    484.28      -901      -901     26.71    344.20      1.41     55.07      0.00     13.71     13.53
01/13 02:00      0.00    581.48   1882201    483.88      -901      -901     26.17    343.40      1.80     55.32      0.00     13.71     13.53
01/13 03:00      0.00    581.46   1880520    483.56      -901      -901     25.61    334.10      1.89     54.52      0.00     13.71     13.53
01/13 04:00      0.00    581.47   1881361    483.29      -901      -901     25.27    347.00      2.09     52.38      0.00     13.71     13.53
01/13 05:00      0.00    581.47   1881361    483.11      -901      -901     24.94    342.70      2.39     52.27      0.00     13.71     13.36
01/13 06:00      0.00    581.44   1878839    484.22      -901      -901     23.74    344.50      2.09     51.22      0.00     13.71     13.53
01/13 07:00      0.00    581.41   1876317    487.71      -901      -901     22.96    342.30      2.68     50.31      0.00     13.70     13.53
01/13 08:00      0.00    581.44   1878839    488.72      -901      -901     22.75    341.90      2.92     48.78      5.00     13.70     13.53
01/13 09:00      0.00    581.41   1876317    489.09      -901      -901     22.86    343.30      2.77     49.64     49.00     13.71     13.53
01/13 10:00      0.00    581.39   1874636    488.99      -901      -901     24.19    344.70      1.92     45.49    139.00     13.70     13.53
01/13 11:00      0.00    581.44   1878839    488.90      -901      -901     27.05    341.20      2.74     39.99    392.00     13.71     13.36
01/13 12:00      0.00    581.44   1878839    486.69      -901      -901     27.46    315.70      1.93     37.48    458.00     13.71     13.36
01/13 13:00      0.00    581.42   1877157    485.57      -901      -901     30.34    308.90      2.21     35.78    619.00     13.71     13.53
01/13 14:00      0.00    581.42   1877157    484.82      -901      -901     30.99    291.60      3.30     33.64    526.00     13.71     13.53
01/13 15:00      0.00    581.44   1878839    484.28      -901      -901     32.20    293.20      3.74     32.30    498.00     13.72     13.53
01/13 16:00      0.00    581.40   1875476    483.88      -901      -901     33.85    266.70      4.87     29.25    356.00     13.72     13.53
01/13 17:00      0.00    581.39   1874636    484.69      -901      -901     34.74    273.60      3.92     30.65    178.00     13.72     13.53
01/13 18:00      0.00    581.38   1873795    488.03      -901      -901     32.09    343.10      1.35     27.84     15.00     13.72     13.53
01/13 19:00      0.00    581.37   1872954    488.75      -901      -901     30.11     50.10      1.30     45.49      0.00     13.72     13.53
01/13 20:00      0.00    581.38   1873795    489.06      -901      -901     29.44    132.20      0.83     45.73      0.00     13.72     13.53
01/13 21:00      0.00    581.38   1873795    487.43      -901      -901     28.69    122.80      0.89     50.98      0.00     13.72     13.53
01/13 22:00      0.00    581.38   1873795    486.05      -901      -901     28.13    128.70      0.81     51.83      0.00     13.71     13.53
01/13 23:00      0.00    581.36   1872114    485.15      -901      -901     27.91    125.40      1.14     60.26      0.00     13.72     13.53